createdAt,value
2023-01-23T00:01:49.911Z,0.98
2023-01-23T00:04:20.237Z,1.04
2023-01-23T00:06:50.156Z,1.13
2023-01-23T00:09:17.510Z,1.17
2023-01-23T00:11:44.518Z,1.16
2023-01-23T00:14:16.031Z,1.11
2023-01-23T00:16:44.239Z,1.04
2023-01-23T00:19:11.335Z,0.97
2023-01-23T00:21:39.132Z,0.93
2023-01-23T00:24:08.731Z,0.94
2023-01-23T00:26:35.840Z,0.96
2023-01-23T00:29:03.506Z,1.04
2023-01-23T00:31:33.426Z,1.19
2023-01-23T00:34:22.562Z,1.27
2023-01-23T00:36:49.679Z,1.24
2023-01-23T00:39:18.838Z,1.19
2023-01-23T00:41:46.467Z,1.16
2023-01-23T00:44:14.139Z,1.12
2023-01-23T00:46:41.100Z,1.08
2023-01-23T00:49:08.263Z,1.08
2023-01-23T00:51:35.358Z,1.05
2023-01-23T00:54:02.642Z,1.00
2023-01-23T00:56:30.376Z,0.97
2023-01-23T00:58:57.406Z,0.96
2023-01-23T01:01:25.559Z,0.99
2023-01-23T07:33:45.496Z,1.15
2023-01-23T07:36:14.301Z,1.20
2023-01-23T07:38:42.320Z,1.13
2023-01-23T07:41:09.644Z,1.09
2023-01-23T07:43:37.662Z,1.06
2023-01-23T07:46:05.183Z,1.05
2023-01-23T07:48:36.887Z,1.05
2023-01-23T07:51:04.609Z,1.06
2023-01-23T07:53:32.019Z,1.07
2023-01-23T07:55:59.382Z,1.07
2023-01-23T07:58:26.751Z,1.08
2023-01-23T08:00:53.922Z,1.10
2023-01-23T08:03:21.120Z,1.15
2023-01-23T08:05:50.448Z,1.20
2023-01-23T08:08:20.020Z,1.26
2023-01-23T08:10:49.484Z,1.28
2023-01-23T08:13:17.010Z,1.27
2023-01-23T08:15:45.995Z,1.27
2023-01-23T08:18:14.636Z,1.29
2023-01-23T08:20:41.837Z,1.31
2023-01-23T08:23:10.374Z,1.34
2023-01-23T08:25:37.912Z,1.37
2023-01-23T08:28:05.345Z,1.38
2023-01-23T08:30:33.248Z,1.37
2023-01-23T08:33:04.375Z,1.40
2023-01-23T08:35:32.858Z,1.47
2023-01-23T08:38:02.026Z,1.52
2023-01-23T08:40:29.872Z,1.53
2023-01-23T08:42:58.232Z,1.52
2023-01-23T08:45:26.177Z,1.51
2023-01-23T08:47:53.461Z,1.49
2023-01-23T08:50:21.320Z,1.46
2023-01-23T08:52:48.462Z,1.46
2023-01-23T08:55:16.128Z,1.49
2023-01-23T08:57:44.337Z,1.55
2023-01-23T09:00:12.961Z,1.58
2023-01-23T09:02:40.678Z,1.56
2023-01-23T09:05:08.463Z,1.54
2023-01-23T09:07:37.485Z,1.54
2023-01-23T09:10:07.725Z,1.54
2023-01-23T09:12:35.586Z,1.53
2023-01-23T09:15:03.018Z,1.49
2023-01-23T09:17:30.955Z,1.41
2023-01-23T09:20:00.462Z,1.36
2023-01-23T09:22:27.731Z,1.34
2023-01-23T09:24:54.897Z,1.33
2023-01-23T09:27:22.430Z,1.33
2023-01-23T09:29:50.135Z,1.34
2023-01-23T09:32:17.300Z,1.33
2023-01-23T09:34:48.547Z,1.32
2023-01-23T09:37:16.280Z,1.28
2023-01-23T09:39:47.476Z,1.24
2023-01-23T09:42:27.498Z,1.22
2023-01-23T09:45:01.649Z,1.26
2023-01-23T09:47:54.010Z,1.31
2023-01-23T09:50:33.467Z,1.33
2023-01-23T09:53:12.392Z,1.37
2023-01-23T09:55:45.109Z,1.43
2023-01-23T09:58:38.230Z,1.46
2023-01-23T10:01:05.799Z,1.47
2023-01-23T10:03:35.329Z,1.45
2023-01-23T10:06:15.387Z,1.42
2023-01-23T10:09:00.704Z,1.40
2023-01-23T10:11:46.971Z,1.40
2023-01-23T10:14:34.750Z,1.38
2023-01-23T10:17:15.168Z,1.35
2023-01-23T16:39:57.627Z,1.50
2023-01-23T16:42:27.562Z,1.57
2023-01-23T16:44:55.416Z,1.49
2023-01-23T16:47:28.007Z,1.42
2023-01-23T16:49:55.794Z,1.35
2023-01-23T16:52:24.374Z,1.31
2023-01-23T16:54:52.655Z,1.30
2023-01-23T16:57:20.381Z,1.30
2023-01-23T16:59:49.894Z,1.32
2023-01-23T17:02:35.495Z,1.30
2023-01-23T17:05:03.085Z,1.24
2023-01-23T17:07:32.163Z,1.22
2023-01-23T17:10:00.074Z,1.23
2023-01-23T17:12:29.895Z,1.24
2023-01-23T17:14:57.934Z,1.23
2023-01-23T17:17:34.998Z,1.23
2023-01-23T17:20:05.063Z,1.26
2023-01-23T17:22:38.453Z,1.28
2023-01-23T17:25:17.184Z,1.25
2023-01-23T17:27:48.694Z,1.21
2023-01-23T17:30:24.982Z,1.19
2023-01-23T17:32:59.292Z,1.18
2023-01-23T17:35:37.040Z,1.19
2023-01-23T17:38:06.570Z,1.22
2023-01-23T17:40:43.630Z,1.23
2023-01-23T17:43:36.008Z,1.23
2023-01-23T17:46:06.068Z,1.27
2023-01-23T17:48:59.570Z,1.29
2023-01-23T17:51:27.966Z,1.29
2023-01-23T17:53:56.752Z,1.30
2023-01-23T17:56:25.907Z,1.32
2023-01-23T17:58:56.383Z,1.33
2023-01-23T18:01:25.080Z,1.34
2023-01-23T18:03:54.598Z,1.31
2023-01-23T18:06:23.411Z,1.29
2023-01-23T18:08:50.955Z,1.30
2023-01-23T18:11:23.534Z,1.34
2023-01-23T18:14:21.123Z,1.35
2023-01-23T18:16:53.410Z,1.32
2023-01-23T18:19:24.145Z,1.33
2023-01-23T18:21:56.020Z,1.34
2023-01-23T18:24:27.576Z,1.31
2023-01-23T18:27:15.524Z,1.27
2023-01-23T18:29:48.151Z,1.23
2023-01-23T18:32:37.284Z,1.21
2023-01-23T18:35:15.070Z,1.19
2023-01-23T18:38:03.557Z,1.19
2023-01-23T18:40:59.569Z,1.17
2023-01-23T18:43:32.707Z,1.17
2023-01-23T18:46:01.563Z,1.16
2023-01-23T18:48:33.750Z,1.14
2023-01-23T18:51:45.178Z,1.13
2023-01-23T18:54:31.351Z,1.10
2023-01-23T18:57:27.415Z,1.07
2023-01-23T19:00:00.636Z,1.06
2023-01-23T19:02:49.947Z,1.09
2023-01-23T19:05:29.673Z,1.11
